createdAt,value
2022-12-23T00:05:08.596Z,6.52
2022-12-23T00:10:32.728Z,6.52
2022-12-23T00:16:14.897Z,6.52
2022-12-23T00:21:56.468Z,6.53
2022-12-23T00:27:20.203Z,6.57
2022-12-23T00:32:43.754Z,6.63
2022-12-23T00:38:07.860Z,6.65
2022-12-23T00:43:49.879Z,6.60
2022-12-23T00:49:46.249Z,6.49
2022-12-23T00:55:27.156Z,6.32
2022-12-23T01:01:25.407Z,6.17
2022-12-23T01:07:06.198Z,6.13
2022-12-23T01:12:30.907Z,6.16
2022-12-23T01:18:12.910Z,6.24
2022-12-23T01:23:37.253Z,6.31
2022-12-23T01:29:18.243Z,6.35
2022-12-23T01:34:59.548Z,6.39
2022-12-23T01:40:23.234Z,6.40
2022-12-23T01:45:47.607Z,6.34
2022-12-23T01:51:17.479Z,6.09
2022-12-23T01:56:41.479Z,5.67
2022-12-23T02:02:40.483Z,5.48
2022-12-23T02:08:39.342Z,5.45
2022-12-23T02:14:43.857Z,5.53
2022-12-23T02:20:43.891Z,5.64
2022-12-23T02:26:40.920Z,5.79
2022-12-23T02:32:25.256Z,5.84
2022-12-23T02:38:19.065Z,5.83
2022-12-23T02:44:19.001Z,5.85
2022-12-23T02:50:00.793Z,5.87
2022-12-23T02:55:26.205Z,5.88
2022-12-23T03:00:53.290Z,5.86
2022-12-23T03:06:19.277Z,5.85
2022-12-23T03:11:52.346Z,5.82
2022-12-23T03:17:52.347Z,5.77
2022-12-23T03:23:55.786Z,5.74
2022-12-23T03:29:41.140Z,5.74
2022-12-23T03:35:25.076Z,5.75
2022-12-23T03:41:11.057Z,5.81
2022-12-23T03:46:36.303Z,5.86
2022-12-23T03:52:21.434Z,5.78
2022-12-23T03:58:14.135Z,5.76
2022-12-23T04:03:39.238Z,5.79
2022-12-23T04:09:22.306Z,5.85
2022-12-23T04:15:09.025Z,5.92
2022-12-23T04:20:36.554Z,5.99
2022-12-23T04:25:59.961Z,6.11
2022-12-23T04:31:24.063Z,6.25
2022-12-23T04:36:48.366Z,6.37
2022-12-23T04:42:29.788Z,6.53
2022-12-23T04:48:10.929Z,6.65
2022-12-23T04:53:34.747Z,6.75
2022-12-23T04:59:16.056Z,6.83
2022-12-23T05:04:39.771Z,6.91
2022-12-23T05:10:04.251Z,6.98
2022-12-23T05:15:28.589Z,7.05
2022-12-23T05:20:52.408Z,7.09
2022-12-23T05:26:16.168Z,7.13
2022-12-23T05:31:39.753Z,7.18
2022-12-23T05:37:20.970Z,7.22
2022-12-23T05:43:02.506Z,7.26
2022-12-23T05:48:27.044Z,7.29
2022-12-23T05:53:50.776Z,7.31
2022-12-23T05:59:16.128Z,7.32
2022-12-23T06:04:57.567Z,7.32
2022-12-23T06:10:38.593Z,7.33
2022-12-23T06:16:20.228Z,7.32
2022-12-23T06:22:02.190Z,7.32
2022-12-23T06:27:25.835Z,7.33
2022-12-23T06:32:49.719Z,7.34
2022-12-23T06:38:14.078Z,7.37
2022-12-23T06:43:55.748Z,7.40
2022-12-23T06:49:37.592Z,7.41
2022-12-23T06:55:21.458Z,7.43
2022-12-23T07:01:02.653Z,7.46
2022-12-23T07:06:27.638Z,7.49
2022-12-23T07:11:53.559Z,7.52
2022-12-23T07:17:17.968Z,7.54
2022-12-23T07:22:43.956Z,7.56
2022-12-23T07:28:08.178Z,7.58
2022-12-23T07:33:35.850Z,7.60
2022-12-23T07:39:00.946Z,7.61
2022-12-23T07:44:43.853Z,7.64
2022-12-23T07:50:27.667Z,7.66
2022-12-23T07:56:09.573Z,7.70
2022-12-23T08:01:34.058Z,7.73
2022-12-23T08:06:58.933Z,7.75
2022-12-23T08:12:23.835Z,7.77
2022-12-23T08:17:47.821Z,7.80
2022-12-23T08:23:29.942Z,7.83
2022-12-23T08:29:11.801Z,7.86
2022-12-23T08:34:36.539Z,7.85
2022-12-23T08:40:18.378Z,7.87
2022-12-23T08:45:42.393Z,7.87
2022-12-23T08:51:07.618Z,7.86
2022-12-23T08:56:34.209Z,7.91
2022-12-23T09:02:16.563Z,7.97
2022-12-23T09:07:43.658Z,8.00
2022-12-23T09:13:09.013Z,8.01
2022-12-23T09:18:34.660Z,8.01
2022-12-23T09:24:01.387Z,7.98
2022-12-23T09:29:44.469Z,7.94
2022-12-23T09:35:26.409Z,7.89
2022-12-23T09:41:12.368Z,7.86
2022-12-23T09:46:36.595Z,7.85
2022-12-23T09:52:01.385Z,7.83
2022-12-23T09:57:31.328Z,7.81
2022-12-23T10:02:58.644Z,7.88
2022-12-23T10:08:34.136Z,7.94
2022-12-23T10:13:59.976Z,7.93
2022-12-23T10:19:26.981Z,7.93
2022-12-23T10:24:50.662Z,7.89
2022-12-23T10:30:57.430Z,7.90
2022-12-23T10:36:43.090Z,7.95
2022-12-23T10:42:25.905Z,8.01
2022-12-23T10:48:22.364Z,8.05
2022-12-23T10:53:54.412Z,8.14
2022-12-23T10:59:22.429Z,8.23
2022-12-23T11:04:50.045Z,8.17
2022-12-23T11:10:33.600Z,8.12
2022-12-23T11:16:16.384Z,8.11
2022-12-23T11:21:41.445Z,8.15
2022-12-23T11:27:08.672Z,8.23
2022-12-23T11:32:32.453Z,8.28
2022-12-23T11:37:56.292Z,8.29
2022-12-23T11:43:38.006Z,8.28
2022-12-23T11:49:20.593Z,8.31
2022-12-23T11:54:49.830Z,8.39
2022-12-23T12:00:38.841Z,8.48
2022-12-23T12:06:20.096Z,8.46
2022-12-23T12:11:48.513Z,8.47
2022-12-23T12:17:42.862Z,8.48
2022-12-23T12:23:42.068Z,8.47
2022-12-23T12:29:28.795Z,8.41
2022-12-23T12:35:13.579Z,8.38
2022-12-23T12:40:38.486Z,8.36
2022-12-23T12:46:21.146Z,8.31
2022-12-23T12:51:46.836Z,8.23
2022-12-23T12:57:28.768Z,8.19
2022-12-23T13:03:11.036Z,8.17
2022-12-23T13:09:13.411Z,8.17
2022-12-23T13:14:46.855Z,8.17
2022-12-23T13:20:22.755Z,8.16
2022-12-23T13:25:47.316Z,8.13
2022-12-23T13:31:38.020Z,8.12
2022-12-23T13:37:38.022Z,8.10
2022-12-23T13:43:23.738Z,8.09
2022-12-23T13:48:54.468Z,8.09
2022-12-23T13:55:14.504Z,8.09
2022-12-23T14:01:21.147Z,8.09
2022-12-23T14:07:09.032Z,8.08
2022-12-23T14:12:51.293Z,8.08
2022-12-23T14:18:32.184Z,8.08
2022-12-23T14:24:22.705Z,8.07
2022-12-23T14:29:52.561Z,8.08
2022-12-23T14:35:42.013Z,8.09
2022-12-23T14:41:25.318Z,8.09
2022-12-23T14:46:49.697Z,8.10
2022-12-23T14:52:44.470Z,8.12
2022-12-23T14:58:28.380Z,8.12
2022-12-23T15:03:59.251Z,8.13
2022-12-23T15:10:02.326Z,8.12
2022-12-23T15:15:57.419Z,8.12
2022-12-23T15:21:46.809Z,8.12
2022-12-23T15:27:30.400Z,8.14
2022-12-23T15:32:56.371Z,8.18
2022-12-23T15:38:37.792Z,8.22
2022-12-23T15:44:23.712Z,8.19
2022-12-23T15:49:47.534Z,8.17
2022-12-23T15:55:30.374Z,8.17
2022-12-23T16:00:54.011Z,8.17
2022-12-23T16:06:36.410Z,8.21
2022-12-23T16:12:27.736Z,8.31
2022-12-23T16:17:51.761Z,8.29
2022-12-23T16:23:33.461Z,8.25
2022-12-23T16:29:15.255Z,8.21
2022-12-23T16:34:38.617Z,8.21
2022-12-23T16:40:03.645Z,8.21
2022-12-23T16:45:27.475Z,8.18
2022-12-23T16:51:15.044Z,8.15
2022-12-23T16:56:56.805Z,8.14
2022-12-23T17:02:38.619Z,8.16
2022-12-23T17:08:19.702Z,8.22
2022-12-23T17:13:43.332Z,8.19
2022-12-23T17:19:07.173Z,8.15
2022-12-23T17:24:31.186Z,8.20
2022-12-23T17:30:16.383Z,8.37
2022-12-23T17:35:58.042Z,8.48
2022-12-23T17:41:40.229Z,8.47
2022-12-23T17:47:22.581Z,8.39
2022-12-23T17:52:46.971Z,8.32
2022-12-23T17:58:28.669Z,8.19
2022-12-23T18:03:52.712Z,8.11
2022-12-23T18:09:34.461Z,8.10
2022-12-23T18:14:58.116Z,8.10
2022-12-23T18:20:22.535Z,8.21
2022-12-23T18:25:47.009Z,8.28
2022-12-23T18:31:15.519Z,8.21
2022-12-23T18:36:39.614Z,8.21
2022-12-23T18:42:04.076Z,8.12
2022-12-23T18:47:28.262Z,8.02
2022-12-23T18:53:09.654Z,7.96
2022-12-23T18:58:50.885Z,7.89
2022-12-23T19:04:32.146Z,7.84
2022-12-23T19:09:56.641Z,7.86
2022-12-23T19:15:38.322Z,7.87
2022-12-23T19:21:19.814Z,7.90
2022-12-23T19:26:43.363Z,7.88
2022-12-23T19:32:07.318Z,7.81
2022-12-23T19:37:31.343Z,7.83
2022-12-23T19:43:12.587Z,7.85
2022-12-23T19:48:54.802Z,7.78
2022-12-23T19:54:35.890Z,7.73
2022-12-23T20:00:00.285Z,7.70
2022-12-23T20:05:41.532Z,7.62
2022-12-23T20:11:26.509Z,7.60
2022-12-23T20:16:50.496Z,7.55
2022-12-23T20:22:32.415Z,7.48
2022-12-23T20:27:56.677Z,7.46
2022-12-23T20:33:38.508Z,7.51
2022-12-23T20:39:20.031Z,7.51
2022-12-23T20:44:43.893Z,7.50
2022-12-23T20:50:08.181Z,7.45
2022-12-23T20:55:33.421Z,7.38
2022-12-23T21:01:14.802Z,7.28
2022-12-23T21:06:56.003Z,7.17
2022-12-23T21:12:36.894Z,7.06
2022-12-23T21:18:00.593Z,6.98
2022-12-23T21:23:42.466Z,6.96
2022-12-23T21:29:23.993Z,6.98
2022-12-23T21:34:48.450Z,7.02
2022-12-23T21:40:12.884Z,7.06
2022-12-23T21:45:36.464Z,7.09
2022-12-23T21:51:17.525Z,7.14
2022-12-23T21:57:00.203Z,7.20
2022-12-23T22:02:46.278Z,7.27
2022-12-23T22:08:27.572Z,7.21
2022-12-23T22:13:52.401Z,7.08
2022-12-23T22:19:33.904Z,6.98
2022-12-23T22:24:57.645Z,6.89
2022-12-23T22:30:38.825Z,6.89
2022-12-23T22:36:03.427Z,6.96
2022-12-23T22:41:44.577Z,7.04
2022-12-23T22:47:26.044Z,7.02
2022-12-23T22:52:49.928Z,7.08
2022-12-23T22:58:15.251Z,7.14
2022-12-23T23:03:39.365Z,7.02
2022-12-23T23:09:22.013Z,7.00
2022-12-23T23:15:03.229Z,7.01
2022-12-23T23:20:44.231Z,6.97
2022-12-23T23:26:27.669Z,6.91
2022-12-23T23:31:51.733Z,6.89
2022-12-23T23:37:16.083Z,6.91
2022-12-23T23:42:40.443Z,6.92
2022-12-23T23:48:22.476Z,6.95
2022-12-23T23:54:04.444Z,6.90
2022-12-23T23:59:45.683Z,6.81
